sensor_id;sensor_type;location;lat;lon;timestamp;pressure;altitude;pressure_sealevel;temperature;humidity
37634;BME280;32048;49.902;22.508;2023-09-08T00:00:05;99628.81;;;12.06;100.00
37634;BME280;32048;49.902;22.508;2023-09-08T00:02:32;99622.56;;;12.09;100.00
37634;BME280;32048;49.902;22.508;2023-09-08T00:04:59;99618.97;;;12.10;100.00
37634;BME280;32048;49.902;22.508;2023-09-08T00:07:26;99619.13;;;12.06;100.00
37634;BME280;32048;49.902;22.508;2023-09-08T00:09:53;99620.97;;;12.04;100.00
37634;BME280;32048;49.902;22.508;2023-09-08T00:12:20;99620.28;;;11.99;100.00
37634;BME280;32048;49.902;22.508;2023-09-08T00:14:48;99624.66;;;12.00;100.00
37634;BME280;32048;49.902;22.508;2023-09-08T00:17:15;99624.72;;;11.99;100.00
37634;BME280;32048;49.902;22.508;2023-09-08T00:19:42;99624.88;;;11.96;100.00
37634;BME280;32048;49.902;22.508;2023-09-08T00:22:09;99621.44;;;11.94;100.00
37634;BME280;32048;49.902;22.508;2023-09-08T00:24:36;99624.88;;;11.96;100.00
37634;BME280;32048;49.902;22.508;2023-09-08T00:27:03;99622.44;;;11.91;100.00
37634;BME280;32048;49.902;22.508;2023-09-08T00:29:30;99618.94;;;11.91;100.00
37634;BME280;32048;49.902;22.508;2023-09-08T00:31:57;99619.03;;;11.88;100.00
37634;BME280;32048;49.902;22.508;2023-09-08T00:34:25;99616.34;;;11.89;100.00
37634;BME280;32048;49.902;22.508;2023-09-08T00:36:51;99624.41;;;11.86;100.00
37634;BME280;32048;49.902;22.508;2023-09-08T00:39:19;99627.09;;;11.84;100.00
37634;BME280;32048;49.902;22.508;2023-09-08T00:41:46;99619.91;;;11.88;100.00
37634;BME280;32048;49.902;22.508;2023-09-08T00:44:13;99622.50;;;11.90;100.00
37634;BME280;32048;49.902;22.508;2023-09-08T00:46:40;99621.59;;;11.91;100.00
37634;BME280;32048;49.902;22.508;2023-09-08T00:49:08;99625.13;;;11.90;100.00
37634;BME280;32048;49.902;22.508;2023-09-08T00:51:36;99626.94;;;11.89;100.00
37634;BME280;32048;49.902;22.508;2023-09-08T00:54:06;99627.03;;;11.86;100.00
37634;BME280;32048;49.902;22.508;2023-09-08T00:56:35;99621.75;;;11.86;100.00
37634;BME280;32048;49.902;22.508;2023-09-08T00:59:04;99621.81;;;11.84;100.00
37634;BME280;32048;49.902;22.508;2023-09-08T01:01:32;99622.13;;;11.77;100.00
37634;BME280;32048;49.902;22.508;2023-09-08T01:04:01;99614.38;;;11.72;100.00
37634;BME280;32048;49.902;22.508;2023-09-08T01:06:30;99620.81;;;11.67;100.00
37634;BME280;32048;49.902;22.508;2023-09-08T01:08:59;99620.16;;;11.61;100.00
37634;BME280;32048;49.902;22.508;2023-09-08T01:11:27;99614.91;;;11.60;100.00
37634;BME280;32048;49.902;22.508;2023-09-08T01:13:54;99611.53;;;11.56;100.00
37634;BME280;32048;49.902;22.508;2023-09-08T01:16:21;99609.03;;;11.53;100.00
37634;BME280;32048;49.902;22.508;2023-09-08T01:18:49;99612.78;;;11.48;100.00
37634;BME280;32048;49.902;22.508;2023-09-08T01:27:04;99609.53;;;11.41;100.00
37634;BME280;32048;49.902;22.508;2023-09-08T01:29:33;99600.88;;;11.37;100.00
37634;BME280;32048;49.902;22.508;2023-09-08T01:32:01;99601.78;;;11.36;100.00
37634;BME280;32048;49.902;22.508;2023-09-08T01:34:31;99600.97;;;11.34;100.00
37634;BME280;32048;49.902;22.508;2023-09-08T01:36:58;99600.28;;;11.31;100.00
37634;BME280;32048;49.902;22.508;2023-09-08T01:39:27;99596.03;;;11.27;100.00
37634;BME280;32048;49.902;22.508;2023-09-08T01:41:53;99599.53;;;11.27;100.00
37634;BME280;32048;49.902;22.508;2023-09-08T01:44:21;99603.97;;;11.27;100.00
37634;BME280;32048;49.902;22.508;2023-09-08T01:46:47;99607.53;;;11.26;100.00
37634;BME280;32048;49.902;22.508;2023-09-08T01:49:15;99609.31;;;11.25;100.00
37634;BME280;32048;49.902;22.508;2023-09-08T01:51:42;99606.78;;;11.22;100.00
37634;BME280;32048;49.902;22.508;2023-09-08T01:54:12;99604.41;;;11.16;100.00
37634;BME280;32048;49.902;22.508;2023-09-08T01:56:39;99614.16;;;11.14;100.00
37634;BME280;32048;49.902;22.508;2023-09-08T01:59:06;99614.31;;;11.11;100.00
37634;BME280;32048;49.902;22.508;2023-09-08T02:01:33;99615.28;;;11.08;100.00
37634;BME280;32048;49.902;22.508;2023-09-08T02:04:00;99608.41;;;11.04;100.00
37634;BME280;32048;49.902;22.508;2023-09-08T02:06:27;99610.25;;;11.02;100.00
37634;BME280;32048;49.902;22.508;2023-09-08T02:08:54;99602.44;;;10.99;100.00
37634;BME280;32048;49.902;22.508;2023-09-08T02:11:21;99598.19;;;10.95;100.00
37634;BME280;32048;49.902;22.508;2023-09-08T02:13:48;99597.34;;;10.94;100.00
37634;BME280;32048;49.902;22.508;2023-09-08T02:16:16;99593.03;;;10.92;100.00
37634;BME280;32048;49.902;22.508;2023-09-08T02:18:44;99593.97;;;10.91;100.00
37634;BME280;32048;49.902;22.508;2023-09-08T02:21:11;99591.44;;;10.88;100.00
37634;BME280;32048;49.902;22.508;2023-09-08T02:23:39;99588.91;;;10.85;100.00
37634;BME280;32048;49.902;22.508;2023-09-08T02:26:06;99588.09;;;10.82;100.00
37634;BME280;32048;49.902;22.508;2023-09-08T02:28:33;99589.09;;;10.80;100.00
37634;BME280;32048;49.902;22.508;2023-09-08T02:31:00;99598.22;;;10.71;100.00
37634;BME280;32048;49.902;22.508;2023-09-08T02:33:27;99600.78;;;10.74;100.00
37634;BME280;32048;49.902;22.508;2023-09-08T02:35:55;99599.84;;;10.75;100.00
37634;BME280;32048;49.902;22.508;2023-09-08T02:38:22;99603.25;;;10.79;100.00
37634;BME280;32048;49.902;22.508;2023-09-08T02:40:49;99597.00;;;10.80;100.00
37634;BME280;32048;49.902;22.508;2023-09-08T02:43:16;99602.88;;;10.88;100.00
37634;BME280;32048;49.902;22.508;2023-09-08T02:45:46;99600.00;;;10.94;100.00
37634;BME280;32048;49.902;22.508;2023-09-08T02:48:14;99601.50;;;11.00;100.00
37634;BME280;32048;49.902;22.508;2023-09-08T02:50:41;99607.53;;;11.03;100.00
37634;BME280;32048;49.902;22.508;2023-09-08T02:53:08;99600.53;;;11.02;100.00
37634;BME280;32048;49.902;22.508;2023-09-08T02:55:35;99595.25;;;11.02;100.00
37634;BME280;32048;49.902;22.508;2023-09-08T02:58:02;99596.97;;;11.03;100.00
37634;BME280;32048;49.902;22.508;2023-09-08T03:00:29;99590.94;;;11.00;100.00
37634;BME280;32048;49.902;22.508;2023-09-08T03:02:56;99592.78;;;10.98;100.00
37634;BME280;32048;49.902;22.508;2023-09-08T03:05:23;99599.00;;;10.97;100.00
37634;BME280;32048;49.902;22.508;2023-09-08T03:07:50;99596.59;;;10.91;100.00
37634;BME280;32048;49.902;22.508;2023-09-08T03:10:17;99598.19;;;10.95;100.00
37634;BME280;32048;49.902;22.508;2023-09-08T03:12:44;99593.78;;;10.95;100.00
37634;BME280;32048;49.902;22.508;2023-09-08T03:15:12;99588.47;;;10.95;100.00
37634;BME280;32048;49.902;22.508;2023-09-08T03:17:39;99593.72;;;10.97;100.00
37634;BME280;32048;49.902;22.508;2023-09-08T03:20:09;99580.38;;;11.00;100.00
37634;BME280;32048;49.902;22.508;2023-09-08T03:22:37;99579.38;;;11.02;100.00
37634;BME280;32048;49.902;22.508;2023-09-08T03:25:04;99582.97;;;11.01;100.00
37634;BME280;32048;49.902;22.508;2023-09-08T03:27:32;99590.88;;;11.01;100.00
37634;BME280;32048;49.902;22.508;2023-09-08T03:29:58;99587.41;;;11.01;100.00
37634;BME280;32048;49.902;22.508;2023-09-08T03:32:26;99590.09;;;10.99;100.00
37634;BME280;32048;49.902;22.508;2023-09-08T03:34:53;99590.13;;;10.98;100.00
37634;BME280;32048;49.902;22.508;2023-09-08T03:37:20;99580.31;;;11.01;100.00
37634;BME280;32048;49.902;22.508;2023-09-08T03:39:47;99579.28;;;11.06;100.00
37634;BME280;32048;49.902;22.508;2023-09-08T03:42:14;99574.91;;;11.05;100.00
37634;BME280;32048;49.902;22.508;2023-09-08T03:44:41;99581.03;;;11.05;100.00
37634;BME280;32048;49.902;22.508;2023-09-08T03:47:08;99568.00;;;11.00;100.00
37634;BME280;32048;49.902;22.508;2023-09-08T03:49:35;99570.00;;;10.95;100.00
37634;BME280;32048;49.902;22.508;2023-09-08T03:52:02;99585.78;;;10.97;100.00
37634;BME280;32048;49.902;22.508;2023-09-08T03:54:29;99583.34;;;10.92;100.00
37634;BME280;32048;49.902;22.508;2023-09-08T03:56:56;99575.59;;;10.88;100.00
37634;BME280;32048;49.902;22.508;2023-09-08T03:59:23;99573.84;;;10.87;100.00
37634;BME280;32048;49.902;22.508;2023-09-08T04:01:51;99573.13;;;10.83;100.00
37634;BME280;32048;49.902;22.508;2023-09-08T04:04:18;99575.84;;;10.81;100.00
37634;BME280;32048;49.902;22.508;2023-09-08T04:06:47;99568.81;;;10.80;100.00
37634;BME280;32048;49.902;22.508;2023-09-08T04:09:14;99576.72;;;10.80;100.00
37634;BME280;32048;49.902;22.508;2023-09-08T04:11:41;99570.69;;;10.78;100.00
37634;BME280;32048;49.902;22.508;2023-09-08T04:14:08;99570.69;;;10.78;100.00
37634;BME280;32048;49.902;22.508;2023-09-08T04:16:35;99577.72;;;10.78;100.00
37634;BME280;32048;49.902;22.508;2023-09-08T04:19:02;99570.59;;;10.80;100.00
37634;BME280;32048;49.902;22.508;2023-09-08T04:21:30;99565.31;;;10.80;100.00
37634;BME280;32048;49.902;22.508;2023-09-08T04:23:56;99570.50;;;10.83;100.00
37634;BME280;32048;49.902;22.508;2023-09-08T04:26:24;99563.28;;;10.87;100.00
37634;BME280;32048;49.902;22.508;2023-09-08T04:28:51;99561.25;;;10.93;100.00
37634;BME280;32048;49.902;22.508;2023-09-08T04:31:18;99574.38;;;10.96;100.00
37634;BME280;32048;49.902;22.508;2023-09-08T04:33:46;99567.16;;;11.00;100.00
37634;BME280;32048;49.902;22.508;2023-09-08T04:36:13;99565.06;;;11.08;100.00
37634;BME280;32048;49.902;22.508;2023-09-08T04:38:40;99564.34;;;11.25;100.00
37634;BME280;32048;49.902;22.508;2023-09-08T04:41:08;99569.84;;;11.41;100.00
37634;BME280;32048;49.902;22.508;2023-09-08T04:43:35;99564.19;;;11.71;100.00
37634;BME280;32048;49.902;22.508;2023-09-08T04:46:03;99563.22;;;12.13;100.00
37634;BME280;32048;49.902;22.508;2023-09-08T04:48:30;99567.25;;;12.59;100.00
37634;BME280;32048;49.902;22.508;2023-09-08T04:50:57;99564.94;;;13.07;100.00
37634;BME280;32048;49.902;22.508;2023-09-08T04:53:24;99556.44;;;13.54;100.00
37634;BME280;32048;49.902;22.508;2023-09-08T04:55:52;99567.50;;;13.97;100.00
37634;BME280;32048;49.902;22.508;2023-09-08T04:58:18;99562.25;;;14.45;100.00
37634;BME280;32048;49.902;22.508;2023-09-08T05:00:46;99571.63;;;14.84;100.00
37634;BME280;32048;49.902;22.508;2023-09-08T05:03:13;99568.03;;;15.31;100.00
37634;BME280;32048;49.902;22.508;2023-09-08T05:05:40;99575.25;;;15.75;100.00
37634;BME280;32048;49.902;22.508;2023-09-08T05:08:07;99580.31;;;16.23;100.00
37634;BME280;32048;49.902;22.508;2023-09-08T05:10:35;99587.25;;;16.68;100.00
37634;BME280;32048;49.902;22.508;2023-09-08T05:13:02;99586.09;;;17.14;100.00
37634;BME280;32048;49.902;22.508;2023-09-08T05:15:31;99582.38;;;17.56;100.00
37634;BME280;32048;49.902;22.508;2023-09-08T05:18:01;99579.97;;;18.04;100.00
37634;BME280;32048;49.902;22.508;2023-09-08T05:20:28;99579.41;;;18.51;96.96
37634;BME280;32048;49.902;22.508;2023-09-08T05:22:55;99588.88;;;18.93;93.89
37634;BME280;32048;49.902;22.508;2023-09-08T05:25:22;99578.09;;;19.30;89.65
37634;BME280;32048;49.902;22.508;2023-09-08T05:27:49;99581.13;;;19.61;87.75
37634;BME280;32048;49.902;22.508;2023-09-08T05:30:16;99584.91;;;19.93;86.70
37634;BME280;32048;49.902;22.508;2023-09-08T05:32:43;99579.59;;;20.39;83.75
37634;BME280;32048;49.902;22.508;2023-09-08T05:35:10;99589.47;;;20.83;78.37
37634;BME280;32048;49.902;22.508;2023-09-08T05:37:37;99586.34;;;21.10;76.61
37634;BME280;32048;49.902;22.508;2023-09-08T05:40:05;99590.97;;;21.20;76.74
37634;BME280;32048;49.902;22.508;2023-09-08T05:42:33;99587.50;;;21.29;76.31
37634;BME280;32048;49.902;22.508;2023-09-08T05:45:00;99583.84;;;21.62;77.00
37634;BME280;32048;49.902;22.508;2023-09-08T05:47:27;99583.97;;;22.03;74.24
37634;BME280;32048;49.902;22.508;2023-09-08T05:49:54;99580.78;;;22.39;73.35
37634;BME280;32048;49.902;22.508;2023-09-08T05:52:21;99591.00;;;22.86;70.91
37634;BME280;32048;49.902;22.508;2023-09-08T05:54:49;99592.25;;;23.32;68.00
37634;BME280;32048;49.902;22.508;2023-09-08T05:57:15;99591.94;;;23.74;65.23
37634;BME280;32048;49.902;22.508;2023-09-08T05:59:43;99582.84;;;24.04;63.75
37634;BME280;32048;49.902;22.508;2023-09-08T06:02:10;99582.41;;;24.56;61.53
37634;BME280;32048;49.902;22.508;2023-09-08T06:04:37;99580.78;;;24.73;60.32
37634;BME280;32048;49.902;22.508;2023-09-08T06:07:04;99583.69;;;25.07;59.71
37634;BME280;32048;49.902;22.508;2023-09-08T06:09:32;99576.34;;;25.45;57.76
37634;BME280;32048;49.902;22.508;2023-09-08T06:11:59;99586.91;;;25.75;54.44
37634;BME280;32048;49.902;22.508;2023-09-08T06:14:26;99582.53;;;26.00;53.32
37634;BME280;32048;49.902;22.508;2023-09-08T06:16:53;99584.78;;;26.39;52.94
37634;BME280;32048;49.902;22.508;2023-09-08T06:19:20;99576.38;;;26.76;50.76
37634;BME280;32048;49.902;22.508;2023-09-08T06:21:47;99584.78;;;27.15;49.27
37634;BME280;32048;49.902;22.508;2023-09-08T06:24:14;99590.63;;;27.45;47.89
37634;BME280;32048;49.902;22.508;2023-09-08T06:26:41;99579.44;;;27.65;47.81
37634;BME280;32048;49.902;22.508;2023-09-08T06:29:09;99585.38;;;27.76;48.00
37634;BME280;32048;49.902;22.508;2023-09-08T06:31:37;99581.94;;;28.15;47.76
37634;BME280;32048;49.902;22.508;2023-09-08T06:34:04;99580.19;;;28.47;45.92
37634;BME280;32048;49.902;22.508;2023-09-08T06:36:32;99585.75;;;28.70;45.30
37634;BME280;32048;49.902;22.508;2023-09-08T06:38:59;99583.38;;;28.98;45.57
37634;BME280;32048;49.902;22.508;2023-09-08T06:41:26;99585.38;;;29.36;44.49
37634;BME280;32048;49.902;22.508;2023-09-08T06:43:54;99570.88;;;29.67;43.98
37634;BME280;32048;49.902;22.508;2023-09-08T06:46:21;99578.97;;;29.98;43.07
37634;BME280;32048;49.902;22.508;2023-09-08T06:48:50;99578.22;;;30.19;42.59
37634;BME280;32048;49.902;22.508;2023-09-08T06:51:17;99585.19;;;30.51;40.94
37634;BME280;32048;49.902;22.508;2023-09-08T06:53:54;99579.00;;;30.57;41.21
37634;BME280;32048;49.902;22.508;2023-09-08T06:56:22;99570.25;;;30.77;39.91
37634;BME280;32048;49.902;22.508;2023-09-08T06:58:51;99574.66;;;30.93;40.06
37634;BME280;32048;49.902;22.508;2023-09-08T07:01:20;99571.38;;;30.97;39.91
37634;BME280;32048;49.902;22.508;2023-09-08T07:03:47;99568.09;;;30.87;40.36
37634;BME280;32048;49.902;22.508;2023-09-08T07:06:16;99577.00;;;30.96;40.61
37634;BME280;32048;49.902;22.508;2023-09-08T07:08:43;99578.72;;;31.18;40.11
37634;BME280;32048;49.902;22.508;2023-09-08T07:11:10;99566.88;;;31.47;39.51
37634;BME280;32048;49.902;22.508;2023-09-08T07:13:37;99575.50;;;31.73;39.94
37634;BME280;32048;49.902;22.508;2023-09-08T07:16:04;99581.53;;;31.89;39.52
37634;BME280;32048;49.902;22.508;2023-09-08T07:18:32;99574.91;;;31.99;39.70
37634;BME280;32048;49.902;22.508;2023-09-08T07:21:03;99573.72;;;32.08;39.11
37634;BME280;32048;49.902;22.508;2023-09-08T07:23:30;99573.06;;;32.06;39.03
37634;BME280;32048;49.902;22.508;2023-09-08T07:25:57;99565.19;;;32.18;39.95
37634;BME280;32048;49.902;22.508;2023-09-08T07:28:24;99567.91;;;32.53;38.47
37634;BME280;32048;49.902;22.508;2023-09-08T07:30:51;99570.31;;;32.69;38.06
37634;BME280;32048;49.902;22.508;2023-09-08T07:33:19;99566.41;;;32.85;37.23
37634;BME280;32048;49.902;22.508;2023-09-08T07:35:46;99573.94;;;32.76;37.71
37634;BME280;32048;49.902;22.508;2023-09-08T07:38:13;99570.13;;;32.77;38.52
37634;BME280;32048;49.902;22.508;2023-09-08T07:40:41;99565.78;;;32.89;38.29
37634;BME280;32048;49.902;22.508;2023-09-08T07:43:08;99558.44;;;32.97;37.90
37634;BME280;32048;49.902;22.508;2023-09-08T07:45:35;99563.81;;;33.38;38.31
37634;BME280;32048;49.902;22.508;2023-09-08T07:48:03;99568.50;;;33.98;36.97
37634;BME280;32048;49.902;22.508;2023-09-08T07:50:30;99567.88;;;34.29;36.63
37634;BME280;32048;49.902;22.508;2023-09-08T07:52:58;99563.38;;;34.41;35.85
37634;BME280;32048;49.902;22.508;2023-09-08T07:55:25;99560.69;;;34.28;35.90
37634;BME280;32048;49.902;22.508;2023-09-08T07:57:57;99566.78;;;34.36;36.07
37634;BME280;32048;49.902;22.508;2023-09-08T08:00:24;99557.28;;;34.39;35.74
37634;BME280;32048;49.902;22.508;2023-09-08T08:02:54;99558.50;;;34.56;36.30
37634;BME280;32048;49.902;22.508;2023-09-08T08:05:22;99564.19;;;34.55;34.75
37634;BME280;32048;49.902;22.508;2023-09-08T08:07:50;99554.13;;;34.35;35.86
37634;BME280;32048;49.902;22.508;2023-09-08T08:10:18;99559.34;;;34.50;35.86
37634;BME280;32048;49.902;22.508;2023-09-08T08:12:46;99551.97;;;34.57;35.77
37634;BME280;32048;49.902;22.508;2023-09-08T08:15:13;99565.88;;;34.69;35.29
37634;BME280;32048;49.902;22.508;2023-09-08T08:17:40;99560.38;;;34.69;34.32
37634;BME280;32048;49.902;22.508;2023-09-08T08:20:09;99556.69;;;34.89;35.30
37634;BME280;32048;49.902;22.508;2023-09-08T08:22:38;99554.28;;;35.12;34.73
37634;BME280;32048;49.902;22.508;2023-09-08T08:25:05;99557.06;;;35.37;34.12
37634;BME280;32048;49.902;22.508;2023-09-08T08:27:32;99562.56;;;35.69;34.41
37634;BME280;32048;49.902;22.508;2023-09-08T08:29:59;99562.66;;;36.06;33.27
37634;BME280;32048;49.902;22.508;2023-09-08T08:32:28;99562.88;;;36.30;32.79
37634;BME280;32048;49.902;22.508;2023-09-08T08:34:55;99561.81;;;36.31;32.99
37634;BME280;32048;49.902;22.508;2023-09-08T08:37:23;99561.19;;;36.47;34.25
37634;BME280;32048;49.902;22.508;2023-09-08T08:39:50;99564.38;;;36.99;33.05
37634;BME280;32048;49.902;22.508;2023-09-08T08:42:18;99560.81;;;37.59;32.46
37634;BME280;32048;49.902;22.508;2023-09-08T08:44:49;99557.63;;;38.21;31.51
37634;BME280;32048;49.902;22.508;2023-09-08T08:47:18;99552.16;;;38.74;30.40
37634;BME280;32048;49.902;22.508;2023-09-08T08:49:46;99551.44;;;39.36;29.90
37634;BME280;32048;49.902;22.508;2023-09-08T08:52:16;99548.56;;;39.30;28.86
37634;BME280;32048;49.902;22.508;2023-09-08T08:54:45;99547.13;;;39.28;29.24
37634;BME280;32048;49.902;22.508;2023-09-08T08:57:13;99541.94;;;39.60;28.78
37634;BME280;32048;49.902;22.508;2023-09-08T08:59:41;99546.97;;;39.80;27.34
37634;BME280;32048;49.902;22.508;2023-09-08T09:02:09;99542.34;;;39.52;28.43
37634;BME280;32048;49.902;22.508;2023-09-08T09:04:38;99545.03;;;39.18;27.98
37634;BME280;32048;49.902;22.508;2023-09-08T09:07:06;99536.97;;;38.88;29.54
37634;BME280;32048;49.902;22.508;2023-09-08T09:09:33;99526.97;;;38.99;29.13
37634;BME280;32048;49.902;22.508;2023-09-08T09:12:01;99536.38;;;39.15;28.85
37634;BME280;32048;49.902;22.508;2023-09-08T09:14:33;99534.09;;;38.95;27.83
37634;BME280;32048;49.902;22.508;2023-09-08T09:17:01;99538.03;;;38.99;28.84
37634;BME280;32048;49.902;22.508;2023-09-08T09:19:31;99529.22;;;39.30;28.64
37634;BME280;32048;49.902;22.508;2023-09-08T09:21:59;99526.09;;;39.39;28.89
37634;BME280;32048;49.902;22.508;2023-09-08T09:24:34;99528.94;;;39.95;26.37
37634;BME280;32048;49.902;22.508;2023-09-08T09:27:04;99531.19;;;39.64;27.30
37634;BME280;32048;49.902;22.508;2023-09-08T09:29:34;99523.13;;;39.28;27.80
37634;BME280;32048;49.902;22.508;2023-09-08T09:32:11;99523.94;;;38.72;27.76
37634;BME280;32048;49.902;22.508;2023-09-08T09:34:49;99528.81;;;38.93;28.76
37634;BME280;32048;49.902;22.508;2023-09-08T09:37:23;99516.78;;;39.45;27.90
37634;BME280;32048;49.902;22.508;2023-09-08T09:39:52;99523.06;;;40.08;27.13
37634;BME280;32048;49.902;22.508;2023-09-08T09:42:21;99514.53;;;40.53;26.21
37634;BME280;32048;49.902;22.508;2023-09-08T09:44:48;99507.44;;;40.85;26.03
37634;BME280;32048;49.902;22.508;2023-09-08T09:47:19;99514.34;;;40.82;24.58
37634;BME280;32048;49.902;22.508;2023-09-08T09:49:47;99517.34;;;40.15;25.20
37634;BME280;32048;49.902;22.508;2023-09-08T09:52:20;99505.50;;;38.89;26.07
37634;BME280;32048;49.902;22.508;2023-09-08T09:54:49;99501.59;;;38.33;26.77
37634;BME280;32048;49.902;22.508;2023-09-08T09:57:21;99504.03;;;38.05;27.88
37634;BME280;32048;49.902;22.508;2023-09-08T09:59:51;99491.75;;;38.25;27.47
37634;BME280;32048;49.902;22.508;2023-09-08T10:02:20;99500.09;;;38.94;26.73
37634;BME280;32048;49.902;22.508;2023-09-08T10:04:49;99509.00;;;39.59;25.48
37634;BME280;32048;49.902;22.508;2023-09-08T10:07:19;99500.94;;;39.91;24.90
37634;BME280;32048;49.902;22.508;2023-09-08T10:09:46;99492.34;;;39.87;23.53
37634;BME280;32048;49.902;22.508;2023-09-08T10:12:15;99496.84;;;39.94;24.68
37634;BME280;32048;49.902;22.508;2023-09-08T10:14:43;99496.44;;;39.85;24.50
37634;BME280;32048;49.902;22.508;2023-09-08T10:17:19;99497.72;;;39.15;24.87
37634;BME280;32048;49.902;22.508;2023-09-08T10:19:53;99495.25;;;39.01;26.10
37634;BME280;32048;49.902;22.508;2023-09-08T10:22:26;99501.66;;;39.19;26.19
37634;BME280;32048;49.902;22.508;2023-09-08T10:24:57;99496.13;;;39.19;25.91
37634;BME280;32048;49.902;22.508;2023-09-08T10:27:26;99490.59;;;39.19;25.46
37634;BME280;32048;49.902;22.508;2023-09-08T10:29:55;99486.03;;;39.24;24.98
37634;BME280;32048;49.902;22.508;2023-09-08T10:32:23;99494.69;;;39.45;25.07
37634;BME280;32048;49.902;22.508;2023-09-08T10:34:50;99483.22;;;38.79;25.47
37634;BME280;32048;49.902;22.508;2023-09-08T10:37:23;99485.06;;;38.09;26.94
37634;BME280;32048;49.902;22.508;2023-09-08T10:42:49;99475.31;;;37.36;27.35
37634;BME280;32048;49.902;22.508;2023-09-08T10:45:17;99477.22;;;37.23;26.95
37634;BME280;32048;49.902;22.508;2023-09-08T10:50:19;99469.75;;;37.12;27.79
37634;BME280;32048;49.902;22.508;2023-09-08T10:53:13;99462.78;;;37.75;27.12
37634;BME280;32048;49.902;22.508;2023-09-08T10:55:46;99456.31;;;38.05;26.23
37634;BME280;32048;49.902;22.508;2023-09-08T10:58:38;99458.97;;;38.40;26.99
37634;BME280;32048;49.902;22.508;2023-09-08T11:01:15;99461.72;;;38.40;24.62
37634;BME280;32048;49.902;22.508;2023-09-08T11:03:44;99454.94;;;38.31;25.81
37634;BME280;32048;49.902;22.508;2023-09-08T11:06:12;99458.47;;;38.15;26.41
37634;BME280;32048;49.902;22.508;2023-09-08T11:08:43;99446.06;;;37.11;27.03
37634;BME280;32048;49.902;22.508;2023-09-08T11:11:12;99450.75;;;36.92;26.72
37634;BME280;32048;49.902;22.508;2023-09-08T11:13:40;99443.75;;;37.08;27.72
37634;BME280;32048;49.902;22.508;2023-09-08T11:16:07;99447.53;;;37.37;27.89
37634;BME280;32048;49.902;22.508;2023-09-08T11:18:35;99442.16;;;37.78;26.45
37634;BME280;32048;49.902;22.508;2023-09-08T11:21:08;99440.88;;;37.57;25.75
37634;BME280;32048;49.902;22.508;2023-09-08T11:23:36;99444.78;;;37.49;26.73
37634;BME280;32048;49.902;22.508;2023-09-08T11:26:03;99446.63;;;37.67;26.90
37634;BME280;32048;49.902;22.508;2023-09-08T11:28:30;99442.16;;;37.78;26.36
37634;BME280;32048;49.902;22.508;2023-09-08T11:30:57;99441.13;;;37.67;25.99
37634;BME280;32048;49.902;22.508;2023-09-08T11:33:25;99439.03;;;37.51;26.35
37634;BME280;32048;49.902;22.508;2023-09-08T11:35:55;99435.78;;;37.89;26.38
37634;BME280;32048;49.902;22.508;2023-09-08T11:38:28;99436.44;;;38.43;26.13
37634;BME280;32048;49.902;22.508;2023-09-08T11:40:57;99438.38;;;38.72;26.71
37634;BME280;32048;49.902;22.508;2023-09-08T11:43:26;99428.66;;;38.69;25.86
37634;BME280;32048;49.902;22.508;2023-09-08T11:45:55;99423.19;;;38.57;25.94
37634;BME280;32048;49.902;22.508;2023-09-08T11:48:24;99427.53;;;38.13;26.01
37634;BME280;32048;49.902;22.508;2023-09-08T11:50:54;99419.81;;;37.09;26.05
37634;BME280;32048;49.902;22.508;2023-09-08T11:53:22;99417.63;;;36.99;26.88
37634;BME280;32048;49.902;22.508;2023-09-08T11:55:49;99404.94;;;36.98;27.70
37634;BME280;32048;49.902;22.508;2023-09-08T11:58:18;99414.22;;;37.27;27.48
37634;BME280;32048;49.902;22.508;2023-09-08T12:00:46;99407.91;;;37.74;27.46
37634;BME280;32048;49.902;22.508;2023-09-08T12:03:16;99414.53;;;38.25;26.75
37634;BME280;32048;49.902;22.508;2023-09-08T12:05:44;99407.81;;;38.61;25.71
37634;BME280;32048;49.902;22.508;2023-09-08T12:08:17;99407.06;;;37.85;26.02
37634;BME280;32048;49.902;22.508;2023-09-08T12:10:44;99396.03;;;37.50;26.23
37634;BME280;32048;49.902;22.508;2023-09-08T12:13:11;99391.09;;;37.16;27.86
37634;BME280;32048;49.902;22.508;2023-09-08T12:15:41;99389.78;;;37.31;27.37
37634;BME280;32048;49.902;22.508;2023-09-08T12:18:12;99391.84;;;37.47;27.54
37634;BME280;32048;49.902;22.508;2023-09-08T12:20:40;99391.03;;;37.58;27.26
37634;BME280;32048;49.902;22.508;2023-09-08T12:23:20;99391.47;;;37.79;27.50
37634;BME280;32048;49.902;22.508;2023-09-08T12:25:49;99385.50;;;38.22;26.10
37634;BME280;32048;49.902;22.508;2023-09-08T12:28:19;99391.75;;;38.58;25.33
37634;BME280;32048;49.902;22.508;2023-09-08T12:30:46;99388.13;;;38.86;25.44
37634;BME280;32048;49.902;22.508;2023-09-08T12:33:14;99392.25;;;38.55;24.44
37634;BME280;32048;49.902;22.508;2023-09-08T12:35:48;99377.47;;;37.57;25.32
37634;BME280;32048;49.902;22.508;2023-09-08T12:38:15;99373.94;;;37.02;26.07
37634;BME280;32048;49.902;22.508;2023-09-08T12:40:43;99374.34;;;36.46;26.44
37634;BME280;32048;49.902;22.508;2023-09-08T12:43:10;99363.63;;;36.26;27.62
37634;BME280;32048;49.902;22.508;2023-09-08T12:45:52;99364.63;;;36.61;27.37
37634;BME280;32048;49.902;22.508;2023-09-08T12:48:19;99369.19;;;36.68;27.68
37634;BME280;32048;49.902;22.508;2023-09-08T12:50:46;99360.13;;;36.91;27.32
37634;BME280;32048;49.902;22.508;2023-09-08T12:53:16;99359.84;;;37.34;26.75
37634;BME280;32048;49.902;22.508;2023-09-08T12:55:47;99362.97;;;37.61;26.23
37634;BME280;32048;49.902;22.508;2023-09-08T12:58:15;99367.88;;;37.59;26.36
37634;BME280;32048;49.902;22.508;2023-09-08T13:00:43;99355.66;;;37.55;25.84